Portada
METAR-TAF:

METAR-TAF

Aeroports :

Tawau, Malàisia

latitud: 04-16N, longitud: 117-53E, altitud: 18 m

Observació

L'informe es va fer fa 29 minuts, a les 15:00 UTC
Vent 3 kt del Nord-Oest, variant entre Oest/Nord-Oest i Nord
Temperatura 25°C
Humitat 94%
Pressió 1011 hPa
Visibilitat 10 km o més
Escasses núvols a una alçada de 1700 ft

METAR: WBKW 241500Z 32003KT 290V010 9999 FEW017 25/24 Q1011

Hora: 23:29 (15:29 UTC)

Pronòstic

L'informe es va fer fa 4 hores i 29 minuts, a les 11:00 UTC
Pronòstic vàlid del 24 a les 12 UTC al 25 a les 12 UTC
Vent 5 kt del Nord-Oest
Visibilitat 10 km o més
Escasses núvols a una alçada de 1700 ft

TAF: WBKW 241100Z 2412/2512 32005KT 9999 FEW017

Observacions i pronòstics meteorològics de més de 4000 aeroports (METAR i TAF).

Les estacions disponibles són els punts grocs i vermells al mapa.

Posi el ratolí al punt desitjat per veure el nom de l'estació.

Feu clic per veure les observacions i els pronòstics meteorològics.

Per canviar el mapa: feu clic els botons verds amb una creu de color negre per apropar; al botó verd amb un guió per allunyar la imatge; o en les fletxes verdes per a mapes adjacents.


METAR-TAF: